Time;durP1;ratioP1;P1;durP2;ratioP2;P2;SDS_P1;SDS_P2;PMS_P1;PMS_P2;Temp;Humidity;BMP_temperature;BMP_pressure;BME280_temperature;BME280_humidity;BME280_pressure;Samples;Min_cycle;Max_cycle;Signal;HPM_P1;HPM_P2
2023/07/12 00:00:45;;;;;;;6.72;3.75;;;18.90;99.90;;;;;;5093737;28;20821;-78
2023/07/12 00:03:12;;;;;;;6.72;3.70;;;19.00;99.90;;;;;;5078141;28;21027;-78
2023/07/12 00:05:38;;;;;;;6.65;4.03;;;19.00;99.90;;;;;;5062669;28;20530;-77
2023/07/12 00:08:05;;;;;;;6.67;4.03;;;18.70;99.90;;;;;;5066984;27;20495;-77
2023/07/12 00:10:34;;;;;;;7.18;4.00;;;18.80;99.90;;;;;;5100372;27;20410;-77
2023/07/12 00:13:00;;;;;;;7.80;4.18;;;18.90;99.90;;;;;;5100180;28;20460;-77
2023/07/12 00:15:29;;;;;;;6.25;3.60;;;18.80;99.90;;;;;;5074561;28;20892;-78
2023/07/12 00:17:55;;;;;;;6.30;3.70;;;18.70;99.90;;;;;;5058019;28;21693;-77
2023/07/12 00:20:31;;;;;;;5.47;3.58;;;18.90;99.90;;;;;;5074890;28;20424;-77
2023/07/12 00:22:57;;;;;;;8.57;3.80;;;18.90;99.90;;;;;;5078392;28;20420;-78
2023/07/12 00:25:27;;;;;;;5.65;3.72;;;18.90;99.90;;;;;;5088632;28;20424;-78
2023/07/12 00:27:54;;;;;;;6.40;3.50;;;18.90;99.90;;;;;;5076626;28;20410;-78
2023/07/12 00:30:26;;;;;;;5.30;3.60;;;18.40;99.90;;;;;;5059501;28;20398;-78
2023/07/12 00:32:55;;;;;;;6.75;3.53;;;18.70;99.90;;;;;;5068065;28;20467;-78
2023/07/12 00:35:26;;;;;;;7.35;3.97;;;18.60;99.90;;;;;;5094029;28;20471;-78
2023/07/12 00:37:55;;;;;;;6.88;3.85;;;18.70;99.90;;;;;;5080596;28;20413;-78
2023/07/12 00:40:58;;;;;;;8.32;4.03;;;18.70;99.90;;;;;;5075384;28;20536;-78
2023/07/12 00:43:45;;;;;;;7.82;4.25;;;18.60;99.90;;;;;;5093669;28;20798;-78
2023/07/12 00:46:29;;;;;;;5.75;3.95;;;18.60;99.90;;;;;;5086758;28;20580;-78
2023/07/12 00:48:55;;;;;;;6.97;4.15;;;18.50;99.90;;;;;;5073084;28;20450;-78
2023/07/12 00:51:28;;;;;;;7.50;4.40;;;18.50;99.90;;;;;;5057149;28;20517;-78
2023/07/12 00:53:55;;;;;;;11.13;4.50;;;18.60;99.90;;;;;;5091312;28;20406;-78
2023/07/12 00:56:21;;;;;;;10.10;4.50;;;18.40;99.90;;;;;;5080725;28;20430;-78
2023/07/12 00:58:52;;;;;;;7.47;4.20;;;18.60;99.90;;;;;;5087761;28;20422;-78
2023/07/12 01:01:18;;;;;;;7.72;4.18;;;18.50;99.90;;;;;;5069009;28;20454;-78
2023/07/12 01:03:45;;;;;;;7.28;4.32;;;18.40;99.90;;;;;;5044231;28;20506;-78
2023/07/12 01:06:15;;;;;;;6.65;4.47;;;18.40;99.90;;;;;;5066020;28;20423;-78
2023/07/12 01:08:41;;;;;;;10.18;4.78;;;18.40;99.90;;;;;;5072541;28;20431;-78
2023/07/12 01:11:12;;;;;;;8.10;4.72;;;18.60;99.90;;;;;;5078896;28;20459;-78
2023/07/12 01:13:42;;;;;;;7.13;4.80;;;18.40;99.90;;;;;;5066138;28;20497;-78
2023/07/12 01:16:09;;;;;;;7.87;4.67;;;18.50;99.90;;;;;;5082696;28;20423;-78
2023/07/12 01:18:35;;;;;;;7.35;5.03;;;;;;;;;;5071878;28;20449;-78
2023/07/12 01:21:22;;;;;;;8.32;5.00;;;18.50;99.90;;;;;;5054880;28;20419;-79
2023/07/12 01:23:48;;;;;;;7.82;5.20;;;18.30;99.90;;;;;;5054768;28;20510;-77
2023/07/12 01:26:31;;;;;;;7.65;5.18;;;18.20;99.90;;;;;;5071002;28;20497;-77
2023/07/12 01:29:00;;;;;;;11.32;5.22;;;18.20;99.90;;;;;;5072191;28;20566;-77
2023/07/12 01:31:27;;;;;;;6.90;4.60;;;18.00;99.90;;;;;;5072648;28;20407;-77
2023/07/12 01:33:53;;;;;;;8.83;5.23;;;18.30;99.90;;;;;;5039580;28;20472;-78
2023/07/12 01:36:21;;;;;;;7.82;5.35;;;18.10;99.90;;;;;;5079065;28;20414;-78
2023/07/12 01:38:49;;;;;;;7.95;5.40;;;18.40;99.90;;;;;;5073510;28;20544;-77
2023/07/12 01:41:14;;;;;;;8.38;5.32;;;18.20;99.90;;;;;;5087569;28;20410;-78
2023/07/12 01:43:40;;;;;;;10.80;5.60;;;18.00;99.90;;;;;;5037874;28;20790;-78
2023/07/12 01:46:06;;;;;;;9.73;5.75;;;18.10;99.90;;;;;;5061681;28;20418;-77
2023/07/12 01:48:32;;;;;;;8.40;5.55;;;18.00;99.90;;;;;;5113046;28;20406;-78
2023/07/12 01:50:59;;;;;;;9.60;5.82;;;18.00;99.90;;;;;;5041997;28;20402;-79
2023/07/12 01:53:25;;;;;;;10.07;5.70;;;18.00;99.90;;;;;;5074981;28;20408;-77
2023/07/12 01:55:51;;;;;;;11.15;6.13;;;18.20;99.90;;;;;;5066371;28;20408;-78
2023/07/12 01:58:16;;;;;;;9.75;5.80;;;18.30;99.90;;;;;;5073167;28;20456;-77
2023/07/12 02:00:42;;;;;;;8.55;5.55;;;18.00;99.90;;;;;;5074357;28;20475;-77
2023/07/12 02:03:08;;;;;;;14.27;6.00;;;18.00;99.90;;;;;;5075322;28;21084;-78
2023/07/12 02:05:33;;;;;;;10.30;6.57;;;17.70;99.90;;;;;;5061178;28;20465;-77
2023/07/12 02:07:59;;;;;;;11.95;5.95;;;17.80;99.90;;;;;;5064345;28;20965;-78
2023/07/12 02:10:25;;;;;;;11.23;5.95;;;17.90;99.90;;;;;;5074131;28;20908;-78
2023/07/12 02:12:51;;;;;;;10.90;6.07;;;17.80;99.90;;;;;;5081624;28;20420;-78
2023/07/12 02:15:18;;;;;;;13.57;5.90;;;17.90;99.90;;;;;;5093804;28;20428;-77
2023/07/12 02:17:44;;;;;;;12.00;5.55;;;17.80;99.90;;;;;;5094588;28;20554;-78
2023/07/12 02:20:11;;;;;;;10.65;5.50;;;17.70;99.90;;;;;;5075240;28;20499;-78
2023/07/12 02:22:43;;;;;;;11.38;6.13;;;17.90;99.90;;;;;;5108160;28;20892;-77
2023/07/12 02:25:12;;;;;;;10.65;5.57;;;18.00;99.90;;;;;;5099133;28;20398;-78
2023/07/12 02:27:39;;;;;;;11.85;6.13;;;18.10;99.90;;;;;;5077398;28;20414;-77
2023/07/12 02:30:17;;;;;;;11.57;5.75;;;17.60;99.90;;;;;;5089232;28;20424;-77
2023/07/12 02:32:43;;;;;;;10.38;6.00;;;17.70;99.90;;;;;;5073774;28;20418;-78
2023/07/12 02:35:09;;;;;;;14.90;5.70;;;17.80;99.90;;;;;;5087182;28;20539;-78
2023/07/12 02:37:35;;;;;;;13.05;6.18;;;17.50;99.90;;;;;;5056976;28;20452;-78
2023/07/12 02:40:04;;;;;;;14.32;6.18;;;17.80;99.90;;;;;;5054050;28;20935;-78
2023/07/12 02:42:29;;;;;;;14.55;6.32;;;17.80;99.90;;;;;;5101684;28;20892;-78
2023/07/12 02:44:55;;;;;;;14.38;6.57;;;17.40;99.90;;;;;;5080999;28;20422;-78
2023/07/12 02:47:21;;;;;;;14.03;6.77;;;17.50;99.90;;;;;;5084417;28;20412;-77
2023/07/12 02:49:47;;;;;;;17.05;7.47;;;;;;;;;;5087088;28;20957;-77
2023/07/12 02:52:13;;;;;;;13.95;7.13;;;17.30;99.90;;;;;;5078068;28;20475;-78
2023/07/12 02:54:38;;;;;;;12.50;6.30;;;17.60;99.90;;;;;;5094172;28;20844;-78
2023/07/12 02:57:05;;;;;;;18.17;6.90;;;;;;;;;;5077584;28;20408;-78
2023/07/12 02:59:31;;;;;;;14.85;7.15;;;17.30;99.90;;;;;;5077163;28;20507;-78
2023/07/12 03:01:57;;;;;;;16.73;6.35;;;;;;;;;;5075393;28;20437;-78
2023/07/12 03:04:23;;;;;;;11.73;6.22;;;17.50;99.90;;;;;;5089009;28;20439;-78
2023/07/12 03:06:49;;;;;;;13.35;6.43;;;;;;;;;;5060559;28;20765;-78
2023/07/12 03:09:15;;;;;;;15.13;6.30;;;17.40;99.90;;;;;;5110655;28;20404;-78
2023/07/12 03:11:44;;;;;;;14.30;6.23;;;17.40;99.90;;;;;;5074434;28;20921;-78
2023/07/12 03:14:10;;;;;;;16.70;6.82;;;17.50;99.90;;;;;;5076588;28;20411;-78
2023/07/12 03:16:35;;;;;;;18.13;6.77;;;17.50;99.90;;;;;;5093498;28;20399;-77
2023/07/12 03:19:01;;;;;;;13.32;5.93;;;17.20;99.90;;;;;;5059443;28;20420;-78
2023/07/12 03:21:27;;;;;;;15.05;6.22;;;17.50;99.90;;;;;;5069799;28;20420;-78
2023/07/12 03:23:53;;;;;;;15.27;6.40;;;;;;;;;;5060611;28;20420;-77
2023/07/12 03:26:19;;;;;;;15.73;6.10;;;17.30;99.90;;;;;;5091870;28;20449;-78
2023/07/12 03:28:44;;;;;;;13.70;6.40;;;17.40;99.90;;;;;;5090716;28;20481;-78
2023/07/12 03:31:13;;;;;;;17.20;6.80;;;17.40;99.90;;;;;;5043673;28;20940;-78
2023/07/12 03:33:39;;;;;;;17.02;6.95;;;17.30;99.90;;;;;;5076091;28;20916;-78
2023/07/12 03:36:05;;;;;;;15.03;7.07;;;17.20;99.90;;;;;;5042945;28;20405;-78
2023/07/12 03:38:32;;;;;;;15.60;7.22;;;;;;;;;;5056796;28;20424;-78
2023/07/12 03:41:10;;;;;;;16.38;7.35;;;17.10;99.90;;;;;;5073591;28;20792;-78
2023/07/12 03:43:36;;;;;;;17.95;7.18;;;17.30;99.90;;;;;;5089447;28;20524;-78
2023/07/12 03:46:03;;;;;;;13.20;6.80;;;17.10;99.90;;;;;;5083836;28;20420;-77
2023/07/12 03:48:29;;;;;;;14.55;6.90;;;17.10;99.90;;;;;;5091339;28;20512;-78
2023/07/12 03:50:55;;;;;;;15.35;7.30;;;17.20;99.90;;;;;;5061907;28;20430;-78
2023/07/12 03:53:22;;;;;;;16.23;6.82;;;17.10;99.90;;;;;;5080037;28;20469;-78
2023/07/12 03:55:48;;;;;;;15.93;7.03;;;17.20;99.90;;;;;;5044852;28;20417;-77
2023/07/12 03:58:20;;;;;;;17.60;6.78;;;17.30;99.90;;;;;;5090563;28;20906;-78
2023/07/12 04:00:48;;;;;;;16.80;6.97;;;17.10;99.90;;;;;;5080156;28;20432;-78
2023/07/12 04:03:15;;;;;;;18.50;7.28;;;17.20;99.90;;;;;;5060992;28;20430;-78
2023/07/12 04:05:42;;;;;;;17.80;7.50;;;;;;;;;;5093910;28;20809;-77
2023/07/12 04:08:10;;;;;;;18.60;7.97;;;17.20;99.90;;;;;;5078082;28;20399;-78
2023/07/12 04:10:36;;;;;;;14.93;7.20;;;17.10;99.90;;;;;;5059414;28;20413;-77
2023/07/12 04:13:02;;;;;;;16.23;7.35;;;17.00;99.90;;;;;;5078050;28;20410;-77
2023/07/12 04:15:28;;;;;;;17.35;7.78;;;17.10;99.90;;;;;;5060806;28;20467;-77
2023/07/12 04:17:54;;;;;;;20.47;8.07;;;;;;;;;;5077102;28;20776;-78
2023/07/12 04:20:20;;;;;;;16.63;8.40;;;;;;;;;;5076545;28;20467;-78
2023/07/12 04:22:50;;;;;;;19.75;8.77;;;17.00;99.90;;;;;;5070759;28;20400;-77
2023/07/12 04:25:17;;;;;;;17.33;8.25;;;;;;;;;;5062922;28;20439;-77
2023/07/12 04:27:43;;;;;;;22.00;8.25;;;16.90;99.90;;;;;;5078422;28;20420;-77
2023/07/12 04:30:12;;;;;;;14.23;7.85;;;17.00;99.90;;;;;;5066220;28;21024;-78
2023/07/12 04:32:38;;;;;;;19.35;7.93;;;17.00;99.90;;;;;;5094254;28;20406;-78
2023/07/12 04:35:06;;;;;;;17.65;7.43;;;17.00;99.90;;;;;;5077027;28;20421;-78
2023/07/12 04:37:32;;;;;;;16.90;7.23;;;;;;;;;;5043101;28;20397;-79
2023/07/12 04:39:58;;;;;;;19.50;8.15;;;;;;;;;;5075165;28;20952;-78
2023/07/12 04:42:24;;;;;;;16.73;7.70;;;17.10;99.90;;;;;;5095492;28;20441;-78
2023/07/12 04:44:49;;;;;;;19.67;7.40;;;17.20;99.90;;;;;;5101271;28;20443;-78
2023/07/12 04:47:16;;;;;;;15.68;7.10;;;17.20;99.90;;;;;;5096005;28;21011;-78
2023/07/12 04:49:45;;;;;;;17.47;7.90;;;;;;;;;;5095864;28;20399;-78
2023/07/12 04:52:12;;;;;;;16.97;7.33;;;;;;;;;;5112163;28;20452;-78
2023/07/12 04:54:42;;;;;;;15.38;7.18;;;17.30;99.90;;;;;;5113485;28;20416;-78
2023/07/12 04:57:08;;;;;;;17.98;7.57;;;;;;;;;;5109108;28;20409;-78
2023/07/12 04:59:35;;;;;;;16.95;7.00;;;17.40;99.90;;;;;;5074023;28;20546;-78
2023/07/12 05:02:00;;;;;;;18.88;7.18;;;17.50;99.90;;;;;;5090775;28;20908;-78
2023/07/12 05:04:26;;;;;;;14.43;6.80;;;;;;;;;;5113077;28;20408;-79
2023/07/12 05:06:52;;;;;;;18.73;6.97;;;17.40;99.90;;;;;;5095627;28;20884;-78
2023/07/12 05:09:20;;;;;;;15.50;7.17;;;17.70;99.90;;;;;;5097975;28;20474;-78
2023/07/12 05:11:47;;;;;;;15.88;6.57;;;17.40;99.90;;;;;;5083606;28;20423;-78
2023/07/12 05:14:13;;;;;;;16.25;7.07;;;;;;;;;;5064260;28;20449;-78
2023/07/12 05:16:38;;;;;;;12.63;6.25;;;17.40;99.90;;;;;;5100486;28;20410;-78
2023/07/12 05:19:04;;;;;;;19.75;7.07;;;17.50;99.90;;;;;;5071191;28;20418;-78
2023/07/12 05:21:30;;;;;;;15.57;6.60;;;17.50;99.90;;;;;;5095758;28;20420;-78
2023/07/12 05:23:55;;;;;;;16.20;6.90;;;17.50;99.90;;;;;;5087374;28;20540;-78
2023/07/12 05:26:22;;;;;;;16.52;7.10;;;;;;;;;;5107603;28;20463;-78
2023/07/12 05:28:48;;;;;;;17.88;6.97;;;17.70;99.90;;;;;;5079859;28;20422;-76
2023/07/12 05:31:15;;;;;;;14.93;7.10;;;17.70;99.90;;;;;;5078529;28;20422;-78
2023/07/12 05:33:43;;;;;;;16.83;6.87;;;17.60;99.90;;;;;;5084604;28;20438;-76
2023/07/12 05:36:09;;;;;;;15.90;7.18;;;;;;;;;;5086700;28;20908;-75
2023/07/12 05:38:35;;;;;;;18.80;7.45;;;17.90;99.90;;;;;;5100858;28;20412;-77
2023/07/12 05:41:02;;;;;;;15.32;7.18;;;17.70;99.90;;;;;;5089831;28;20427;-77
2023/07/12 05:43:28;;;;;;;19.90;7.43;;;17.70;99.90;;;;;;5106317;28;20492;-77
2023/07/12 05:45:56;;;;;;;21.08;7.60;;;17.70;99.90;;;;;;5077473;28;20890;-76
2023/07/12 05:48:23;;;;;;;19.67;7.65;;;17.60;99.90;;;;;;5082758;28;20499;-75
2023/07/12 05:50:51;;;;;;;17.02;7.20;;;17.50;99.90;;;;;;5078001;28;20422;-76
2023/07/12 05:53:17;;;;;;;19.30;7.85;;;17.40;99.90;;;;;;5098827;28;20418;-76
2023/07/12 05:55:42;;;;;;;14.98;7.05;;;17.80;99.90;;;;;;5108719;28;20418;-76
2023/07/12 05:58:09;;;;;;;20.92;7.68;;;17.70;99.90;;;;;;5102220;28;20424;-76
2023/07/12 06:00:35;;;;;;;15.70;7.15;;;;;;;;;;5092946;28;20418;-76
2023/07/12 06:03:00;;;;;;;14.60;6.70;;;18.00;99.90;;;;;;5101855;28;20422;-76
2023/07/12 06:05:26;;;;;;;19.02;7.63;;;17.90;99.90;;;;;;5097145;28;20409;-75
2023/07/12 06:07:52;;;;;;;14.93;7.15;;;17.90;99.90;;;;;;5099740;27;20924;-76
2023/07/12 06:10:18;;;;;;;17.33;7.53;;;18.10;99.90;;;;;;5102244;28;20406;-75
2023/07/12 06:12:44;;;;;;;18.73;6.97;;;18.00;99.90;;;;;;5090816;28;20504;-76
2023/07/12 06:15:10;;;;;;;17.70;7.00;;;18.00;99.90;;;;;;5078082;28;20811;-76
2023/07/12 06:17:36;;;;;;;16.43;6.70;;;18.10;99.90;;;;;;5111770;28;20388;-76
2023/07/12 06:20:02;;;;;;;17.08;7.20;;;18.30;99.90;;;;;;5105254;28;20424;-76
2023/07/12 06:22:28;;;;;;;19.05;7.60;;;18.20;99.90;;;;;;5091925;28;20909;-76
2023/07/12 06:24:54;;;;;;;16.10;7.60;;;18.30;99.90;;;;;;5102965;28;20449;-76
2023/07/12 06:27:20;;;;;;;17.15;6.88;;;18.30;99.90;;;;;;5091153;28;20481;-76
2023/07/12 06:29:46;;;;;;;16.25;7.07;;;;;;;;;;5057415;28;20753;-76
2023/07/12 06:32:13;;;;;;;16.88;7.15;;;18.00;99.90;;;;;;5109751;28;20416;-76
2023/07/12 06:34:39;;;;;;;16.92;7.47;;;18.70;99.90;;;;;;5080477;28;20515;-76
2023/07/12 06:37:08;;;;;;;20.15;7.35;;;18.40;99.90;;;;;;5073881;28;20433;-76
2023/07/12 06:39:37;;;;;;;18.55;7.50;;;18.40;99.90;;;;;;5095266;28;20424;-76
2023/07/12 06:42:03;;;;;;;16.15;7.13;;;18.50;99.90;;;;;;5074541;28;20424;-77
2023/07/12 06:44:29;;;;;;;19.30;7.30;;;18.40;99.90;;;;;;5098753;28;20408;-76
2023/07/12 06:46:55;;;;;;;16.33;6.90;;;18.60;99.90;;;;;;5082536;28;20422;-76
2023/07/12 06:49:20;;;;;;;15.20;6.07;;;18.70;99.90;;;;;;5109660;28;20424;-77
2023/07/12 06:51:46;;;;;;;14.32;6.10;;;18.70;99.90;;;;;;5107271;28;20412;-76
2023/07/12 06:54:15;;;;;;;15.60;5.80;;;18.90;99.90;;;;;;5105787;28;20934;-76
2023/07/12 06:56:41;;;;;;;13.55;5.63;;;19.00;99.90;;;;;;5069215;28;20422;-77
2023/07/12 06:59:08;;;;;;;16.67;5.72;;;19.00;99.90;;;;;;5095186;28;20471;-77
2023/07/12 07:01:34;;;;;;;15.38;5.50;;;18.90;99.90;;;;;;5059920;28;20420;-78
2023/07/12 07:04:00;;;;;;;17.43;5.53;;;18.90;99.90;;;;;;5093394;28;20414;-78
2023/07/12 07:06:26;;;;;;;13.47;5.00;;;19.20;99.90;;;;;;5091652;28;20495;-76
2023/07/12 07:08:52;;;;;;;17.37;5.40;;;19.30;99.90;;;;;;5093226;28;20738;-77
2023/07/12 07:11:17;;;;;;;15.27;5.20;;;19.60;99.90;;;;;;5056963;28;20758;-77
2023/07/12 07:13:43;;;;;;;15.27;4.95;;;19.40;99.90;;;;;;5057999;28;20507;-78
2023/07/12 07:16:11;;;;;;;13.77;4.28;;;19.70;99.90;;;;;;5069749;28;20428;-77
2023/07/12 07:18:36;;;;;;;14.57;4.40;;;20.00;99.90;;;;;;5086077;28;20412;-78
2023/07/12 07:21:03;;;;;;;16.00;4.60;;;20.00;99.90;;;;;;5076143;28;20810;-78
2023/07/12 07:23:29;;;;;;;13.15;4.28;;;19.80;99.90;;;;;;5084654;28;20509;-77
2023/07/12 07:26:00;;;;;;;14.98;5.05;;;19.70;99.90;;;;;;5078300;28;20503;-78
2023/07/12 07:28:25;;;;;;;12.75;4.15;;;19.50;99.90;;;;;;5064885;28;21036;-77
2023/07/12 07:30:55;;;;;;;15.10;5.20;;;19.60;99.90;;;;;;5067571;28;20507;-77
2023/07/12 07:33:21;;;;;;;14.85;4.40;;;19.90;99.90;;;;;;5084155;28;20493;-77
2023/07/12 07:35:47;;;;;;;12.73;4.18;;;19.50;99.90;;;;;;5087672;28;20491;-76
2023/07/12 07:38:13;;;;;;;14.83;4.53;;;19.60;99.90;;;;;;5090854;28;20509;-77
2023/07/12 07:40:42;;;;;;;10.55;4.28;;;19.70;99.90;;;;;;5080546;28;20418;-77
2023/07/12 07:43:10;;;;;;;11.93;4.38;;;19.50;99.90;;;;;;5060229;28;20741;-76
2023/07/12 07:45:35;;;;;;;14.82;4.97;;;19.40;99.90;;;;;;5084379;28;20421;-77
2023/07/12 07:48:01;;;;;;;13.17;4.33;;;19.40;99.90;;;;;;5057655;28;20451;-77
2023/07/12 07:50:28;;;;;;;13.88;4.68;;;19.30;99.90;;;;;;5058759;28;20455;-78
2023/07/12 07:52:53;;;;;;;15.52;5.47;;;19.00;99.90;;;;;;5063512;28;20438;-77
2023/07/12 07:55:23;;;;;;;15.43;5.35;;;19.40;99.90;;;;;;5059687;28;21671;-78
2023/07/12 07:57:49;;;;;;;14.45;5.53;;;19.30;99.90;;;;;;5068100;28;20522;-76
2023/07/12 08:00:15;;;;;;;17.38;5.50;;;19.80;99.90;;;;;;5083916;28;20434;-76
2023/07/12 08:02:42;;;;;;;17.10;5.63;;;20.00;99.90;;;;;;5078087;28;20432;-76
2023/07/12 08:05:09;;;;;;;15.57;5.03;;;20.90;99.90;;;;;;5082118;28;20447;-77
2023/07/12 08:07:41;;;;;;;15.00;5.50;;;20.80;99.90;;;;;;5079286;28;20451;-79
2023/07/12 08:10:14;;;;;;;13.15;4.90;;;20.70;99.90;;;;;;5100389;28;20425;-79
2023/07/12 08:12:39;;;;;;;13.27;4.90;;;20.80;99.90;;;;;;5089677;28;20760;-79
2023/07/12 08:15:06;;;;;;;11.35;4.90;;;20.90;99.90;;;;;;5083060;28;20424;-79
2023/07/12 08:17:35;;;;;;;12.88;4.35;;;21.20;99.90;;;;;;5098732;28;20406;-79
2023/07/12 08:20:03;;;;;;;13.88;4.70;;;20.80;99.90;;;;;;5072442;28;20423;-79
2023/07/12 08:22:28;;;;;;;12.25;4.65;;;20.60;99.90;;;;;;5074861;28;20450;-79
2023/07/12 08:24:54;;;;;;;13.88;4.85;;;20.70;99.90;;;;;;5073092;28;20952;-78
2023/07/12 08:27:20;;;;;;;20.57;6.63;;;20.10;99.90;;;;;;5063976;28;20499;-81
2023/07/12 08:29:45;;;;;;;16.13;5.80;;;20.00;99.90;;;;;;5096544;28;20799;-79
2023/07/12 08:32:11;;;;;;;15.85;6.20;;;19.10;99.90;;;;;;5065395;28;20441;-81
2023/07/12 08:34:37;;;;;;;15.30;6.20;;;18.70;99.90;;;;;;5095553;28;20433;-81
2023/07/12 08:37:04;;;;;;;14.15;6.15;;;18.60;99.90;;;;;;5060112;28;20406;-80
2023/07/12 08:39:30;;;;;;;12.25;5.70;;;18.60;99.90;;;;;;5058079;28;20432;-79
2023/07/12 08:41:57;;;;;;;17.73;6.80;;;18.70;99.90;;;;;;5066509;28;20420;-79
2023/07/12 08:44:23;;;;;;;15.85;6.20;;;18.80;99.90;;;;;;5097650;28;20439;-80
2023/07/12 08:46:59;;;;;;;15.48;6.38;;;18.80;99.90;;;;;;5081505;28;20452;-79
2023/07/12 08:49:26;;;;;;;15.38;7.40;;;18.90;99.90;;;;;;5074232;28;20459;-79
2023/07/12 08:51:57;;;;;;;15.65;6.80;;;19.50;99.90;;;;;;5071078;28;20427;-79
2023/07/12 08:54:34;;;;;;;13.60;6.18;;;20.10;99.90;;;;;;5075714;28;20422;-80
2023/07/12 08:57:24;;;;;;;12.68;5.60;;;20.60;99.90;;;;;;5080953;27;20445;-80
2023/07/12 09:00:07;;;;;;;14.98;5.90;;;20.80;99.90;;;;;;5066757;28;20422;-80
2023/07/12 09:02:34;;;;;;;11.25;4.90;;;20.50;99.90;;;;;;5069263;28;20410;-80
2023/07/12 09:05:10;;;;;;;11.57;4.70;;;20.70;99.90;;;;;;5083249;28;20417;-80
2023/07/12 09:07:37;;;;;;;16.52;5.38;;;20.50;99.90;;;;;;5072332;28;20422;-78
2023/07/12 09:10:04;;;;;;;12.70;4.60;;;20.30;99.90;;;;;;5069335;28;20474;-79
2023/07/12 09:12:32;;;;;;;11.38;4.60;;;20.70;99.90;;;;;;5076885;28;20417;-79
2023/07/12 09:15:00;;;;;;;14.55;4.60;;;20.50;99.90;;;;;;5120175;27;20423;-79
2023/07/12 09:17:30;;;;;;;11.50;4.47;;;20.40;99.90;;;;;;5085723;28;20419;-79
2023/07/12 09:19:56;;;;;;;12.93;4.57;;;20.30;99.90;;;;;;5105187;28;20421;-79
2023/07/12 09:22:23;;;;;;;13.57;4.60;;;20.40;99.90;;;;;;5077945;28;20448;-79
2023/07/12 09:24:54;;;;;;;11.25;4.72;;;20.00;99.90;;;;;;5061442;28;20433;-79
2023/07/12 09:27:25;;;;;;;7.72;3.30;;;20.00;99.90;;;;;;5063844;28;20477;-78
2023/07/12 09:30:02;;;;;;;9.50;3.28;;;19.60;99.90;;;;;;5088901;28;20401;-77
2023/07/12 09:32:33;;;;;;;6.77;3.10;;;19.90;99.90;;;;;;5095725;28;20435;-78
2023/07/12 09:35:01;;;;;;;7.10;2.40;;;20.30;99.90;;;;;;5107807;28;20453;-79
2023/07/12 09:37:28;;;;;;;7.72;2.75;;;20.20;99.90;;;;;;5116073;28;20901;-78
2023/07/12 09:39:59;;;;;;;7.60;2.47;;;20.60;99.90;;;;;;5093017;28;20463;-78
2023/07/12 09:42:26;;;;;;;8.20;2.80;;;20.60;99.90;;;;;;5107152;28;20408;-78
2023/07/12 09:44:54;;;;;;;8.65;3.55;;;21.00;99.90;;;;;;5078586;28;20436;-78
2023/07/12 09:47:55;;;;;;;6.47;2.97;;;21.20;99.90;;;;;;5077316;28;20422;-78
2023/07/12 09:50:32;;;;;;;6.70;2.85;;;21.80;99.90;;;;;;5025038;28;20924;-78
2023/07/12 09:53:04;;;;;;;5.70;2.50;;;21.40;99.90;;;;;;5090626;28;20394;-78
2023/07/12 09:55:51;;;;;;;6.20;2.60;;;21.30;99.90;;;;;;5046067;28;20427;-77
2023/07/12 09:58:24;;;;;;;6.40;2.38;;;21.20;99.90;;;;;;5061027;28;20444;-77
2023/07/12 10:00:59;;;;;;;7.80;3.05;;;21.00;99.90;;;;;;5061743;28;20515;-79
2023/07/12 10:03:52;;;;;;;7.15;2.72;;;21.10;99.90;;;;;;5068244;28;20458;-79
2023/07/12 10:06:20;;;;;;;6.82;2.70;;;20.80;99.90;;;;;;5042642;28;20433;-79
2023/07/12 10:08:54;;;;;;;9.32;2.70;;;21.00;99.90;;;;;;5059012;28;20473;-79
2023/07/12 10:11:46;;;;;;;7.05;2.65;;;21.70;99.90;;;;;;5042217;28;20967;-79
2023/07/12 10:14:15;;;;;;;6.53;2.92;;;21.40;99.90;;;;;;5041033;28;20415;-79
2023/07/12 10:16:55;;;;;;;6.70;2.60;;;21.90;99.90;;;;;;5060012;28;20402;-80
2023/07/12 10:19:24;;;;;;;5.82;2.42;;;22.00;99.90;;;;;;5072789;28;20419;-79
2023/07/12 10:21:52;;;;;;;9.23;2.70;;;21.80;99.90;;;;;;5058464;28;20503;-78
2023/07/12 10:24:19;;;;;;;4.97;2.20;;;21.50;99.90;;;;;;5054284;28;20400;-79
2023/07/12 10:26:45;;;;;;;7.78;2.70;;;21.50;99.90;;;;;;5040202;28;20433;-79
2023/07/12 10:29:20;;;;;;;6.05;2.50;;;21.20;99.90;;;;;;5058169;28;20542;-79
2023/07/12 10:31:57;;;;;;;7.13;2.42;;;21.50;99.90;;;;;;5064641;28;20438;-79
2023/07/12 10:34:34;;;;;;;7.78;2.55;;;21.90;99.90;;;;;;5074834;28;20414;-79
2023/07/12 10:37:43;;;;;;;12.20;2.20;;;22.00;99.90;;;;;;5058083;28;20412;-79
2023/07/12 10:40:17;;;;;;;5.70;2.28;;;22.00;99.90;;;;;;5055510;28;20424;-79
2023/07/12 10:42:50;;;;;;;7.10;2.30;;;22.20;99.90;;;;;;5054567;28;20414;-78
2023/07/12 10:45:30;;;;;;;5.82;2.30;;;22.40;99.90;;;;;;5040620;28;20498;-78
2023/07/12 10:47:57;;;;;;;7.75;3.22;;;22.50;99.90;;;;;;5065734;28;20403;-79
2023/07/12 10:50:33;;;;;;;6.50;3.33;;;22.40;99.90;;;;;;5073752;28;20459;-78
2023/07/12 10:53:10;;;;;;;5.88;2.90;;;22.30;99.90;;;;;;5073744;28;20424;-78
2023/07/12 10:55:49;;;;;;;5.82;2.78;;;22.00;99.90;;;;;;5077561;28;20412;-78
2023/07/12 10:58:21;;;;;;;8.93;2.90;;;22.00;99.90;;;;;;5056558;28;20464;-78
2023/07/12 11:00:55;;;;;;;5.05;2.60;;;19.80;99.90;;;;;;5058831;28;20426;-78
2023/07/12 11:03:41;;;;;;;6.72;2.38;;;22.20;99.90;;;;;;5074963;28;20815;-79
2023/07/12 11:06:26;;;;;;;6.38;2.50;;;22.30;99.90;;;;;;5083493;28;20484;-78
2023/07/12 11:09:07;;;;;;;5.20;2.03;;;22.00;99.90;;;;;;5091168;28;20501;-78
2023/07/12 11:11:43;;;;;;;5.72;1.95;;;22.30;99.90;;;;;;5076794;28;20428;-78
2023/07/12 11:14:14;;;;;;;5.73;1.67;;;22.20;99.90;;;;;;5094465;28;20727;-78
2023/07/12 11:16:51;;;;;;;4.07;1.75;;;22.50;99.90;;;;;;5074394;28;20421;-78
2023/07/12 11:19:38;;;;;;;4.65;1.60;;;22.90;99.90;;;;;;5072498;28;20430;-77
2023/07/12 11:22:17;;;;;;;4.03;1.30;;;22.50;99.90;;;;;;5074096;28;20426;-77
2023/07/12 11:24:58;;;;;;;3.60;1.50;;;22.30;99.90;;;;;;5088619;28;20408;-77
2023/07/12 11:27:41;;;;;;;4.18;1.77;;;22.10;99.90;;;;;;5077338;28;20749;-77
2023/07/12 11:30:27;;;;;;;5.22;1.70;;;22.20;99.90;;;;;;5079850;28;21233;-77
2023/07/12 11:33:17;;;;;;;4.60;1.70;;;22.30;99.90;;;;;;5075291;28;20463;-77
2023/07/12 11:35:47;;;;;;;6.82;2.10;;;22.50;99.90;;;;;;5075476;28;20504;-77
2023/07/12 11:38:31;;;;;;;7.90;2.07;;;22.40;99.90;;;;;;5097954;28;20423;-77
2023/07/12 11:41:02;;;;;;;4.03;1.60;;;22.70;99.90;;;;;;5091978;28;20913;-77
2023/07/12 11:43:34;;;;;;;3.97;1.60;;;22.40;99.90;;;;;;5070801;28;20431;-77
2023/07/12 11:46:02;;;;;;;4.65;1.52;;;22.50;99.90;;;;;;5094927;28;20779;-77
2023/07/12 11:48:33;;;;;;;3.80;1.70;;;22.50;99.90;;;;;;5099194;28;20456;-77
2023/07/12 11:51:04;;;;;;;5.78;1.60;;;22.90;99.90;;;;;;5099523;28;20798;-77
2023/07/12 11:53:30;;;;;;;4.75;1.58;;;22.80;99.90;;;;;;5078137;28;20398;-78
2023/07/12 11:55:56;;;;;;;7.85;1.80;;;22.70;99.90;;;;;;5067951;28;20810;-78
2023/07/12 11:58:27;;;;;;;4.32;1.80;;;22.70;99.90;;;;;;5085060;28;20425;-77
2023/07/12 12:00:56;;;;;;;4.88;1.60;;;22.40;99.90;;;;;;5063963;28;20422;-77
2023/07/12 12:03:23;;;;;;;3.55;1.50;;;22.60;99.90;;;;;;5077145;28;20401;-77
2023/07/12 12:05:50;;;;;;;4.45;1.55;;;22.50;99.90;;;;;;5105021;28;20416;-77
2023/07/12 12:08:25;;;;;;;4.93;1.70;;;22.30;99.90;;;;;;5094275;28;20424;-77
2023/07/12 12:10:53;;;;;;;4.13;1.73;;;22.60;99.90;;;;;;5104519;28;20449;-78
2023/07/12 12:13:19;;;;;;;5.00;2.00;;;22.60;99.90;;;;;;5100581;28;20416;-78
2023/07/12 12:15:58;;;;;;;3.67;1.83;;;22.70;99.90;;;;;;5106732;27;21022;-77
2023/07/12 12:18:24;;;;;;;4.50;1.80;;;22.50;99.90;;;;;;5109354;27;20532;-76
2023/07/12 12:20:55;;;;;;;3.65;1.40;;;22.50;99.90;;;;;;5092115;28;20916;-77
2023/07/12 12:23:39;;;;;;;5.00;1.58;;;22.70;99.90;;;;;;5117200;27;20832;-77
2023/07/12 12:26:19;;;;;;;4.22;1.30;;;22.30;99.90;;;;;;5076776;28;20400;-77
2023/07/12 12:28:51;;;;;;;3.25;1.30;;;22.60;99.90;;;;;;5087805;28;20418;-77
2023/07/12 12:31:20;;;;;;;3.70;1.30;;;22.80;99.90;;;;;;5098502;27;20475;-77
2023/07/12 12:33:58;;;;;;;3.95;1.50;;;23.50;99.90;;;;;;5109385;27;20461;-77
2023/07/12 12:36:27;;;;;;;3.30;1.30;;;23.00;99.90;;;;;;5096284;28;20739;-77
2023/07/12 12:39:16;;;;;;;3.10;1.20;;;23.30;99.90;;;;;;5103446;28;20487;-76
2023/07/12 12:41:48;;;;;;;2.87;1.10;;;23.20;99.90;;;;;;5081874;28;20467;-77
2023/07/12 12:44:18;;;;;;;3.50;1.17;;;23.30;99.90;;;;;;5093873;28;20757;-76
2023/07/12 12:46:48;;;;;;;2.80;1.10;;;23.40;99.90;;;;;;5110458;28;20442;-76
2023/07/12 12:49:23;;;;;;;3.17;1.35;;;23.70;99.80;;;;;;5081296;28;20428;-76
2023/07/12 12:51:51;;;;;;;2.05;1.20;;;23.60;99.40;;;;;;5090934;28;20455;-77
2023/07/12 12:54:17;;;;;;;3.70;1.20;;;24.20;99.90;;;;;;5096905;28;20431;-76
2023/07/12 12:56:44;;;;;;;3.78;1.25;;;24.40;99.90;;;;;;5095675;28;20465;-77
2023/07/12 12:59:12;;;;;;;4.30;1.30;;;24.10;99.50;;;;;;5070949;28;20423;-77